createdAt,value
2022-11-13T00:00:25.630Z,100321.81
2022-11-13T00:03:14.019Z,100317.59
2022-11-13T00:06:01.496Z,100323.38
2022-11-13T00:08:49.277Z,100316.38
2022-11-13T00:11:36.269Z,100321.47
2022-11-13T00:14:23.403Z,100318.75
2022-11-13T00:17:10.452Z,100310.31
2022-11-13T00:19:58.955Z,100305.88
2022-11-13T00:22:46.606Z,100311.50
2022-11-13T00:25:36.643Z,100313.13
2022-11-13T00:28:23.904Z,100318.75
2022-11-13T00:31:12.373Z,100316.38
2022-11-13T00:37:09.469Z,100227.06
2022-11-13T00:39:59.651Z,100323.56
2022-11-13T00:42:46.781Z,100311.56
2022-11-13T00:45:33.896Z,100307.91
2022-11-13T00:48:21.578Z,100310.44
2022-11-13T00:51:08.934Z,100324.03
2022-11-13T00:53:57.274Z,100314.91
2022-11-13T00:56:44.750Z,100318.97
2022-11-13T00:59:31.712Z,100318.22
2022-11-13T01:02:18.659Z,100323.84
2022-11-13T01:05:06.335Z,100316.50
2022-11-13T01:07:53.422Z,100332.94
2022-11-13T01:10:45.578Z,100321.84
2022-11-13T01:13:34.600Z,100321.63
2022-11-13T01:16:23.683Z,100320.94
2022-11-13T01:19:10.719Z,100317.47
2022-11-13T01:21:57.707Z,100313.91
2022-11-13T01:24:44.730Z,100317.81
2022-11-13T01:27:33.546Z,100296.34
2022-11-13T01:30:21.040Z,100299.72
2022-11-13T01:33:08.124Z,100304.47
2022-11-13T01:36:00.647Z,100297.63
2022-11-13T01:38:48.302Z,100309.72
2022-11-13T01:41:35.974Z,100303.66
2022-11-13T01:44:24.533Z,100304.41
2022-11-13T01:47:13.013Z,100299.06
2022-11-13T01:50:03.926Z,100306.22
2022-11-13T01:53:15.246Z,100308.47
2022-11-13T01:56:09.787Z,100295.38
2022-11-13T01:59:38.071Z,100305.09
2022-11-13T02:02:26.521Z,100313.03
2022-11-13T02:05:46.918Z,100312.41
2022-11-13T02:08:37.425Z,100295.41
2022-11-13T02:11:27.904Z,100313.75
2022-11-13T02:14:23.332Z,100288.94
2022-11-13T02:17:22.551Z,100292.78
2022-11-13T02:20:12.492Z,100303.94
2022-11-13T02:23:09.594Z,100281.72
2022-11-13T02:25:58.492Z,100297.38
2022-11-13T02:28:45.764Z,100307.25
2022-11-13T02:31:32.885Z,100303.25
2022-11-13T02:34:19.708Z,100297.38
2022-11-13T02:37:06.639Z,100291.16
2022-11-13T02:39:53.420Z,100283.44
2022-11-13T02:42:41.808Z,100291.88
2022-11-13T02:45:29.214Z,100303.09
2022-11-13T02:48:16.749Z,100285.75
2022-11-13T02:51:04.288Z,100296.69
2022-11-13T02:53:51.846Z,100289.25
2022-11-13T02:56:51.296Z,100297.94
2022-11-13T02:59:39.685Z,100291.88
2022-11-13T03:02:27.141Z,100268.47
2022-11-13T03:05:14.341Z,100311.97
2022-11-13T03:08:01.463Z,100316.78
2022-11-13T03:10:48.363Z,100307.75
2022-11-13T03:13:35.331Z,100312.69
2022-11-13T03:16:23.715Z,100299.50
2022-11-13T03:19:11.214Z,100328.22
2022-11-13T03:21:58.423Z,100325.44
2022-11-13T03:24:46.039Z,100321.13
2022-11-13T03:27:37.140Z,100319.13
2022-11-13T03:30:23.837Z,100302.09
2022-11-13T03:33:12.270Z,100318.47
2022-11-13T03:35:59.958Z,100319.00
2022-11-13T03:38:46.946Z,100317.13
2022-11-13T03:41:34.177Z,100318.44
2022-11-13T03:44:21.381Z,100317.22
2022-11-13T03:47:08.486Z,100277.25
2022-11-13T03:49:58.160Z,100299.88
2022-11-13T03:52:45.148Z,100308.47
2022-11-13T03:55:32.288Z,100306.91
2022-11-13T03:58:19.356Z,100309.59
2022-11-13T04:01:06.372Z,100301.41
2022-11-13T04:03:53.420Z,100299.19
2022-11-13T04:06:41.612Z,100301.78
2022-11-13T04:09:28.748Z,100284.75
2022-11-13T04:12:15.665Z,100292.03
2022-11-13T04:15:02.626Z,100287.44
2022-11-13T04:17:50.443Z,100275.13
2022-11-13T04:20:37.784Z,100267.03
2022-11-13T04:23:26.051Z,100282.63
2022-11-13T04:26:13.270Z,100280.13
2022-11-13T04:29:00.036Z,100274.28
2022-11-13T04:31:47.326Z,100274.38
2022-11-13T04:34:34.046Z,100270.53
2022-11-13T04:37:21.011Z,100282.72
2022-11-13T04:40:11.389Z,100280.16
2022-11-13T04:42:57.550Z,100262.41
2022-11-13T04:45:44.755Z,100280.56
2022-11-13T04:48:31.980Z,100277.03
2022-11-13T04:51:18.846Z,100270.38
2022-11-13T04:54:05.798Z,100279.97
2022-11-13T04:56:54.047Z,100278.13
2022-11-13T04:59:41.444Z,100279.47
2022-11-13T05:05:55.569Z,100277.59
2022-11-13T05:08:42.546Z,100272.69
2022-11-13T05:11:29.443Z,100261.34
2022-11-13T05:14:18.185Z,100264.25
2022-11-13T05:17:05.465Z,100250.34
2022-11-13T05:19:52.919Z,100253.56
2022-11-13T05:22:40.115Z,100259.38
2022-11-13T05:25:27.430Z,100264.19
2022-11-13T05:28:14.615Z,100259.97
2022-11-13T05:31:07.523Z,100245.25
2022-11-13T05:33:55.163Z,100249.16
2022-11-13T05:36:42.208Z,100237.09
2022-11-13T05:39:29.429Z,100244.94
2022-11-13T05:42:16.253Z,100238.16
2022-11-13T05:45:03.298Z,100233.13
2022-11-13T05:47:51.633Z,100251.13
2022-11-13T05:50:38.305Z,100261.41
2022-11-13T05:53:25.629Z,100240.22
2022-11-13T05:56:14.455Z,100265.38
2022-11-13T05:59:02.951Z,100252.50
2022-11-13T06:01:50.461Z,100267.34
2022-11-13T06:04:38.905Z,100269.75
2022-11-13T06:07:25.568Z,100265.38
2022-11-13T06:10:13.339Z,100272.06
2022-11-13T06:12:59.938Z,100273.13
2022-11-13T06:15:46.928Z,100253.13
2022-11-13T06:18:34.689Z,100257.94
2022-11-13T06:21:25.387Z,100249.25
2022-11-13T06:24:13.781Z,100266.81
2022-11-13T06:27:01.022Z,100264.09
2022-11-13T06:29:48.388Z,100258.66
2022-11-13T06:32:35.282Z,100246.09
2022-11-13T06:35:22.397Z,100256.34
2022-11-13T06:38:10.482Z,100253.75
2022-11-13T06:40:58.379Z,100259.72
2022-11-13T06:43:45.844Z,100256.34
2022-11-13T06:46:33.205Z,100259.81
2022-11-13T06:49:20.458Z,100277.09
2022-11-13T06:52:07.583Z,100260.84
2022-11-13T06:54:56.020Z,100270.81
2022-11-13T06:57:43.439Z,100249.88
2022-11-13T07:00:36.181Z,100263.69
2022-11-13T07:03:26.663Z,100245.00
2022-11-13T07:06:15.234Z,100257.66
2022-11-13T07:09:02.311Z,100273.25
2022-11-13T07:11:50.831Z,100276.91
2022-11-13T07:14:38.605Z,100269.28
2022-11-13T07:17:25.779Z,100287.47
2022-11-13T07:20:13.091Z,100285.38
2022-11-13T07:23:02.348Z,100274.66
2022-11-13T07:25:49.508Z,100290.31
2022-11-13T07:28:38.080Z,100303.31
2022-11-13T07:31:25.272Z,100282.25
2022-11-13T07:34:11.989Z,100300.69
2022-11-13T07:36:59.154Z,100297.78
2022-11-13T07:39:45.968Z,100293.31
2022-11-13T07:42:33.121Z,100280.56
2022-11-13T07:45:21.483Z,100311.06
2022-11-13T07:48:08.308Z,100315.56
2022-11-13T07:50:55.695Z,100306.94
2022-11-13T07:53:42.954Z,100305.72
2022-11-13T07:56:30.108Z,100296.94
2022-11-13T07:59:17.186Z,100304.66
2022-11-13T08:02:05.445Z,100303.75
2022-11-13T08:04:52.621Z,100297.91
2022-11-13T08:07:40.015Z,100303.63
2022-11-13T08:10:27.665Z,100299.41
2022-11-13T08:13:14.816Z,100300.63
2022-11-13T08:16:02.079Z,100305.53
2022-11-13T08:18:50.812Z,100301.38
2022-11-13T08:21:45.203Z,100306.38
2022-11-13T08:24:32.895Z,100299.69
2022-11-13T08:27:20.092Z,100288.28
2022-11-13T08:30:08.552Z,100302.72
2022-11-13T08:32:55.858Z,100303.53
2022-11-13T08:35:43.947Z,100293.84
2022-11-13T08:38:31.484Z,100302.38
2022-11-13T08:41:18.702Z,100297.69
2022-11-13T08:44:05.943Z,100296.50
2022-11-13T08:46:52.868Z,100283.47
2022-11-13T08:49:39.605Z,100272.66
2022-11-13T08:52:27.847Z,100270.34
2022-11-13T08:55:14.712Z,100257.44
2022-11-13T08:58:02.444Z,100257.75
2022-11-13T09:00:49.909Z,100254.00
2022-11-13T09:03:37.478Z,100228.84
2022-11-13T09:06:24.519Z,100216.06
2022-11-13T09:09:13.384Z,100197.56
2022-11-13T09:12:00.536Z,100203.47
2022-11-13T09:14:47.547Z,100220.13
2022-11-13T09:17:34.600Z,100218.75
2022-11-13T09:20:22.928Z,100215.91
2022-11-13T09:23:11.046Z,100219.41
2022-11-13T09:26:02.783Z,100210.66
2022-11-13T09:28:49.691Z,100207.81
2022-11-13T09:31:38.372Z,100202.97
2022-11-13T09:34:27.355Z,100206.34
2022-11-13T09:37:16.121Z,100210.13
2022-11-13T09:40:03.358Z,100216.63
2022-11-13T09:42:52.256Z,100213.31
2022-11-13T09:45:41.551Z,100212.09
2022-11-13T09:48:35.165Z,100194.69
2022-11-13T09:51:27.231Z,100199.00
2022-11-13T09:54:15.687Z,100197.00
2022-11-13T09:57:10.596Z,100203.31
2022-11-13T10:00:03.482Z,100198.47
2022-11-13T10:03:07.546Z,100183.44
2022-11-13T10:06:04.651Z,100192.47
2022-11-13T10:08:57.547Z,100168.31
2022-11-13T10:11:50.840Z,100188.13
2022-11-13T10:14:43.005Z,100191.72
2022-11-13T10:17:37.022Z,100190.47
2022-11-13T10:20:27.116Z,100178.50
2022-11-13T10:23:17.787Z,100177.44
2022-11-13T10:26:14.982Z,100175.72
2022-11-13T10:29:07.398Z,100173.94
2022-11-13T10:31:54.917Z,100158.19
2022-11-13T10:34:46.128Z,100171.28
2022-11-13T10:37:47.164Z,100166.56
2022-11-13T10:40:36.583Z,100165.13
2022-11-13T10:43:26.795Z,100166.59
2022-11-13T10:46:20.714Z,100160.69
2022-11-13T10:49:15.091Z,100155.56
2022-11-13T10:52:08.515Z,100159.50
2022-11-13T10:55:15.627Z,100146.50
2022-11-13T10:58:04.263Z,100148.72
2022-11-13T11:00:52.733Z,100140.16
2022-11-13T11:03:50.157Z,100136.28
2022-11-13T11:09:48.863Z,100143.53
2022-11-13T11:12:35.983Z,100137.91
2022-11-13T11:15:27.585Z,100133.78
2022-11-13T11:18:26.312Z,100121.84
2022-11-13T11:21:18.139Z,100123.94
2022-11-13T11:24:10.796Z,100106.06
2022-11-13T11:27:06.470Z,100108.19
2022-11-13T11:30:04.958Z,100100.50
2022-11-13T11:32:58.840Z,100097.66
2022-11-13T11:35:51.133Z,100095.59
2022-11-13T11:38:47.342Z,100097.25
2022-11-13T11:41:44.057Z,100088.56
2022-11-13T11:44:40.636Z,100072.91
2022-11-13T11:47:28.905Z,100079.31
2022-11-13T11:50:20.250Z,100066.19
2022-11-13T11:53:15.927Z,100064.00
2022-11-13T11:56:18.116Z,100068.47
2022-11-13T11:59:43.803Z,100062.22
2022-11-13T12:02:58.123Z,100061.69
2022-11-13T12:05:57.929Z,100048.69
2022-11-13T12:08:53.707Z,100043.84
2022-11-13T12:11:45.226Z,100041.38
2022-11-13T12:14:41.908Z,100044.06
2022-11-13T12:17:45.801Z,100041.88
2022-11-13T12:20:44.191Z,100045.66
2022-11-13T12:23:46.263Z,100035.78
2022-11-13T12:26:38.931Z,100033.69
2022-11-13T12:29:42.117Z,100031.19
2022-11-13T12:32:46.983Z,100030.28
2022-11-13T12:35:37.074Z,100011.66
2022-11-13T12:38:34.903Z,100030.44
2022-11-13T12:41:30.347Z,100037.75
2022-11-13T12:56:00.355Z,100012.41
2022-11-13T12:59:23.893Z,100009.03
2022-11-13T13:02:27.963Z,99998.00
2022-11-13T13:05:25.361Z,99999.47
2022-11-13T13:08:26.972Z,99997.41
2022-11-13T13:11:21.479Z,100000.31
2022-11-13T13:14:47.256Z,99990.56
2022-11-13T13:17:34.223Z,99988.38
2022-11-13T13:20:35.008Z,99977.94
2022-11-13T13:23:28.709Z,99968.44
2022-11-13T13:26:21.012Z,99975.19
2022-11-13T13:29:20.667Z,99972.94
2022-11-13T13:32:21.130Z,99959.56
2022-11-13T13:35:16.004Z,99961.78
2022-11-13T13:38:12.022Z,99957.06
2022-11-13T13:41:12.434Z,99966.03
2022-11-13T13:44:24.449Z,99956.91
2022-11-13T13:47:17.822Z,99959.28
2022-11-13T13:50:08.915Z,99965.53
2022-11-13T13:52:58.069Z,99964.03
2022-11-13T13:55:49.923Z,99949.38
2022-11-13T13:58:38.974Z,99962.31
2022-11-13T14:01:31.973Z,99960.97
2022-11-13T14:04:21.445Z,99954.84
2022-11-13T14:07:21.832Z,99959.19
2022-11-13T14:10:15.400Z,99944.06
2022-11-13T14:13:02.456Z,99954.53
2022-11-13T14:15:49.596Z,99953.41
2022-11-13T14:18:38.135Z,99958.88
2022-11-13T14:21:25.735Z,99956.94
2022-11-13T14:24:18.383Z,99948.94
2022-11-13T14:27:08.065Z,99960.19
2022-11-13T14:29:58.186Z,99954.72
2022-11-13T14:32:47.315Z,99958.94
2022-11-13T14:35:36.783Z,99962.75
2022-11-13T14:38:29.747Z,99943.34
2022-11-13T14:41:22.870Z,99941.38
2022-11-13T14:44:12.787Z,99944.94
2022-11-13T14:47:04.780Z,99938.94
2022-11-13T14:49:51.765Z,99932.81
2022-11-13T14:52:40.281Z,99930.38
2022-11-13T14:55:29.840Z,99944.81
2022-11-13T14:58:28.004Z,99952.34
2022-11-13T15:01:17.700Z,99946.97
2022-11-13T15:04:05.330Z,99942.91
2022-11-13T15:06:55.824Z,99936.97
2022-11-13T15:09:44.821Z,99939.38
2022-11-13T15:12:32.206Z,99933.06
2022-11-13T15:15:21.751Z,99942.03
2022-11-13T15:18:11.285Z,99931.41
2022-11-13T15:20:58.252Z,99933.56
2022-11-13T15:23:45.307Z,99930.16
2022-11-13T15:26:33.924Z,99924.69
2022-11-13T15:29:20.804Z,99916.63
2022-11-13T15:32:11.308Z,99906.97
2022-11-13T15:34:58.353Z,99901.66
2022-11-13T15:37:45.690Z,99904.56
2022-11-13T15:40:33.059Z,99905.88
2022-11-13T15:43:21.348Z,99910.41
2022-11-13T15:46:14.816Z,99909.44
2022-11-13T15:49:01.862Z,99904.25
2022-11-13T15:51:49.021Z,99918.28
2022-11-13T15:54:39.706Z,99916.81
2022-11-13T15:57:28.243Z,99920.88
2022-11-13T16:00:21.445Z,99920.56
2022-11-13T16:03:11.829Z,99921.91
2022-11-13T16:06:00.450Z,99920.81
2022-11-13T16:08:47.611Z,99925.94
2022-11-13T16:11:35.916Z,99930.59
2022-11-13T16:14:25.578Z,99939.59
2022-11-13T16:17:16.694Z,99952.66
2022-11-13T16:20:07.743Z,99953.72
2022-11-13T16:22:55.136Z,99954.03
2022-11-13T16:25:42.917Z,99948.88
2022-11-13T16:28:34.153Z,99957.19
2022-11-13T16:31:24.996Z,99955.34
2022-11-13T16:34:13.285Z,99930.66
2022-11-13T16:37:00.370Z,99940.59
2022-11-13T16:39:47.846Z,99934.47
2022-11-13T16:42:35.016Z,99946.75
2022-11-13T16:45:23.589Z,99937.59
2022-11-13T16:48:14.182Z,99948.38
2022-11-13T16:51:05.122Z,99970.72
2022-11-13T16:53:53.245Z,99972.56
2022-11-13T16:56:40.539Z,99975.19
2022-11-13T16:59:27.435Z,99987.28
2022-11-13T17:02:16.836Z,99988.03
2022-11-13T17:05:05.461Z,100005.25
2022-11-13T17:07:59.080Z,99992.94
2022-11-13T17:10:46.016Z,100010.44
2022-11-13T17:13:33.045Z,100022.56
2022-11-13T17:16:20.367Z,100026.13
2022-11-13T17:19:08.872Z,100012.84
2022-11-13T17:21:56.293Z,100024.38
2022-11-13T17:24:44.583Z,100028.09
2022-11-13T17:27:31.733Z,100037.03
2022-11-13T17:30:19.133Z,100045.13
2022-11-13T17:33:05.944Z,100057.09
2022-11-13T17:35:56.414Z,100075.34
2022-11-13T17:38:43.579Z,100092.16
2022-11-13T17:41:32.363Z,100089.28
2022-11-13T17:44:19.922Z,100127.88
2022-11-13T17:47:06.793Z,100124.66
2022-11-13T17:49:53.757Z,100133.88
2022-11-13T17:52:41.644Z,100154.72
2022-11-13T17:55:28.779Z,100160.72
2022-11-13T17:58:17.443Z,100152.78
2022-11-13T18:01:06.390Z,100149.22
2022-11-13T18:03:56.978Z,100152.03
2022-11-13T18:06:44.068Z,100159.03
2022-11-13T18:09:31.532Z,100173.63
2022-11-13T18:12:18.402Z,100167.13
2022-11-13T18:15:07.537Z,100162.50
2022-11-13T18:17:54.732Z,100158.38
2022-11-13T18:20:42.409Z,100143.47
2022-11-13T18:23:29.605Z,100132.38
2022-11-13T18:26:18.279Z,100148.63
2022-11-13T18:29:05.744Z,100157.59
2022-11-13T18:31:54.312Z,100173.66
2022-11-13T18:34:41.468Z,100165.25
2022-11-13T18:37:28.274Z,100174.69
2022-11-13T18:40:15.342Z,100166.44
2022-11-13T18:43:02.461Z,100152.16
2022-11-13T18:45:57.640Z,100147.63
2022-11-13T18:48:47.540Z,100137.69
2022-11-13T18:51:35.733Z,100127.88
2022-11-13T18:54:22.872Z,100117.97
2022-11-13T18:57:10.113Z,100123.72
2022-11-13T18:59:57.133Z,100128.16
2022-11-13T19:02:44.089Z,100112.63
2022-11-13T19:05:32.588Z,100101.94
2022-11-13T19:08:19.438Z,100121.19
2022-11-13T19:11:08.436Z,100109.31
2022-11-13T19:13:56.007Z,100098.97
2022-11-13T19:16:43.718Z,100115.59
2022-11-13T19:19:30.980Z,100116.53
2022-11-13T19:22:19.844Z,100120.63
2022-11-13T19:25:07.935Z,100126.06
2022-11-13T19:27:55.983Z,100131.41
2022-11-13T19:30:47.510Z,100130.47
2022-11-13T19:33:35.023Z,100131.75
2022-11-13T19:36:24.855Z,100126.91
2022-11-13T19:39:13.733Z,100142.56
2022-11-13T19:42:00.468Z,100138.75
2022-11-13T19:44:47.541Z,100113.34
2022-11-13T19:47:34.542Z,100117.78
2022-11-13T19:50:21.518Z,100118.78
2022-11-13T19:53:08.652Z,100113.75
2022-11-13T19:55:57.196Z,100100.84
2022-11-13T19:58:45.376Z,100116.31
2022-11-13T20:01:33.280Z,100121.63
2022-11-13T20:04:20.414Z,100121.88
2022-11-13T20:07:07.438Z,100125.81
2022-11-13T20:09:54.425Z,100129.81
2022-11-13T20:12:42.994Z,100127.78
2022-11-13T20:15:30.078Z,100130.72
2022-11-13T20:18:17.179Z,100137.97
2022-11-13T20:21:04.869Z,100118.78
2022-11-13T20:23:53.119Z,100122.75
2022-11-13T20:26:40.028Z,100118.84
2022-11-13T20:29:29.038Z,100111.94
2022-11-13T20:32:16.391Z,100121.41
2022-11-13T20:35:03.343Z,100128.88
2022-11-13T20:37:50.473Z,100132.91
2022-11-13T20:40:37.464Z,100119.75
2022-11-13T20:43:24.525Z,100125.88
2022-11-13T20:46:14.629Z,100127.84
2022-11-13T20:49:02.426Z,100125.88
2022-11-13T20:51:53.434Z,100119.22
2022-11-13T20:54:42.784Z,100130.72
2022-11-13T20:57:29.896Z,100128.84
2022-11-13T21:00:17.514Z,100125.56
2022-11-13T21:03:06.028Z,100116.50
2022-11-13T21:05:53.124Z,100108.69
2022-11-13T21:08:40.839Z,100090.44
2022-11-13T21:11:29.224Z,100108.50
2022-11-13T21:14:16.825Z,100108.34
2022-11-13T21:17:03.909Z,100112.53
2022-11-13T21:19:57.425Z,100109.88
2022-11-13T21:22:45.128Z,100124.69
2022-11-13T21:25:32.543Z,100115.06
2022-11-13T21:28:24.071Z,100140.59
2022-11-13T21:31:15.384Z,100136.44
2022-11-13T21:34:02.474Z,100135.53
2022-11-13T21:36:50.890Z,100138.72
2022-11-13T21:39:38.606Z,100126.78
2022-11-13T21:42:25.766Z,100125.81
2022-11-13T21:45:13.143Z,100126.84
2022-11-13T21:48:00.141Z,100125.22
2022-11-13T21:50:47.197Z,100131.53
2022-11-13T21:53:35.732Z,100122.84
2022-11-13T21:56:22.512Z,100118.41
2022-11-13T21:59:10.173Z,100119.91
2022-11-13T22:01:57.275Z,100119.44
2022-11-13T22:04:44.245Z,100112.72
2022-11-13T22:07:31.695Z,100113.00
2022-11-13T22:10:20.517Z,100114.91
2022-11-13T22:13:07.676Z,100114.56
2022-11-13T22:15:55.756Z,100122.41
2022-11-13T22:18:42.898Z,100126.91
2022-11-13T22:21:30.674Z,100142.41
2022-11-13T22:24:19.677Z,100149.72
2022-11-13T22:27:08.061Z,100149.09
2022-11-13T22:29:55.246Z,100148.91
2022-11-13T22:32:42.222Z,100166.50
2022-11-13T22:35:29.058Z,100164.16
2022-11-13T22:38:16.822Z,100166.84
2022-11-13T22:41:05.261Z,100176.78
2022-11-13T22:43:56.200Z,100166.81
2022-11-13T22:46:43.336Z,100162.13
2022-11-13T22:49:30.868Z,100150.31
2022-11-13T22:52:17.975Z,100157.03
2022-11-13T22:55:05.155Z,100150.91
2022-11-13T22:57:52.355Z,100151.31
2022-11-13T23:00:40.768Z,100155.53
2022-11-13T23:03:28.302Z,100154.41
2022-11-13T23:06:18.305Z,100150.78
2022-11-13T23:09:06.172Z,100139.94
2022-11-13T23:11:54.031Z,100152.19
2022-11-13T23:14:41.103Z,100153.44
2022-11-13T23:17:29.464Z,100149.66
2022-11-13T23:20:16.820Z,100157.44
2022-11-13T23:23:03.826Z,100167.03
2022-11-13T23:25:50.711Z,100155.34
2022-11-13T23:28:38.386Z,100164.13
2022-11-13T23:31:28.951Z,100149.97
2022-11-13T23:34:38.453Z,100150.78
2022-11-13T23:37:25.920Z,100141.63
2022-11-13T23:40:17.428Z,100160.81
2022-11-13T23:43:04.399Z,100157.16
2022-11-13T23:45:55.799Z,100152.19
2022-11-13T23:48:43.049Z,100159.97
2022-11-13T23:51:31.821Z,100158.53
2022-11-13T23:54:19.027Z,100149.22
2022-11-13T23:57:06.142Z,100162.66
2022-11-13T23:59:53.523Z,100159.91
